createdAt,value
2023-03-03T00:01:19.107Z,99.90
2023-03-03T00:03:46.554Z,99.90
2023-03-03T00:06:14.925Z,99.90
2023-03-03T00:08:42.718Z,99.90
2023-03-03T00:11:10.459Z,99.90
2023-03-03T00:13:55.491Z,99.90
2023-03-03T00:16:35.687Z,99.90
2023-03-03T00:19:03.317Z,99.90
2023-03-03T00:21:42.062Z,99.90
2023-03-03T00:24:23.452Z,99.90
2023-03-03T00:26:54.830Z,99.90
2023-03-03T00:29:28.688Z,99.90
2023-03-03T00:32:00.249Z,99.90
2023-03-03T00:34:30.768Z,99.90
2023-03-03T00:36:59.111Z,99.90
2023-03-03T00:39:39.234Z,99.90
2023-03-03T00:42:15.131Z,99.90
2023-03-03T00:44:59.129Z,99.90
2023-03-03T00:47:42.866Z,99.90
2023-03-03T00:50:10.100Z,99.90
2023-03-03T00:52:40.193Z,99.90
2023-03-03T00:55:08.771Z,99.90
2023-03-03T00:57:36.130Z,99.90
2023-03-03T01:00:05.904Z,99.90
2023-03-03T01:02:33.782Z,99.90
2023-03-03T01:05:01.385Z,99.90
2023-03-03T01:07:28.623Z,99.90
2023-03-03T01:09:56.065Z,99.90
2023-03-03T01:12:24.457Z,99.90
2023-03-03T01:14:54.993Z,99.90
2023-03-03T01:17:22.498Z,99.90
2023-03-03T01:19:50.168Z,99.90
2023-03-03T01:22:17.593Z,99.90
2023-03-03T01:24:44.902Z,99.90
2023-03-03T01:27:12.302Z,99.90
2023-03-03T01:29:39.629Z,99.90
2023-03-03T01:32:07.179Z,99.90
2023-03-03T01:34:34.485Z,99.90
2023-03-03T01:37:01.929Z,99.90
2023-03-03T01:39:29.187Z,99.90
2023-03-03T01:41:56.765Z,99.90
2023-03-03T01:44:24.304Z,99.90
2023-03-03T01:47:05.904Z,99.90
2023-03-03T01:49:40.338Z,99.90
2023-03-03T01:52:17.606Z,99.90
2023-03-03T01:54:50.689Z,99.90
2023-03-03T01:57:24.400Z,99.90
2023-03-03T01:59:52.880Z,99.90
2023-03-03T02:02:20.722Z,99.90
2023-03-03T02:04:49.603Z,99.90
2023-03-03T02:07:19.118Z,99.90
2023-03-03T02:10:05.358Z,99.90
2023-03-03T02:13:05.769Z,99.90
2023-03-03T02:15:38.380Z,99.90
2023-03-03T02:18:11.118Z,99.90
2023-03-03T02:20:48.508Z,99.90
2023-03-03T02:23:32.863Z,99.90
2023-03-03T02:26:11.255Z,99.90
2023-03-03T02:28:40.802Z,99.90
2023-03-03T02:31:13.684Z,99.90
2023-03-03T02:33:48.256Z,99.90
2023-03-03T02:36:27.675Z,99.90
2023-03-03T02:39:22.150Z,99.90
2023-03-03T02:42:20.441Z,99.90
2023-03-03T02:44:52.099Z,99.90
2023-03-03T02:47:19.386Z,99.90
2023-03-03T02:49:46.893Z,99.90
2023-03-03T02:52:15.078Z,99.90
2023-03-03T02:54:45.911Z,99.90
2023-03-03T02:57:13.256Z,99.90
2023-03-03T02:59:40.712Z,99.90
2023-03-03T03:02:14.086Z,99.90
2023-03-03T03:04:42.656Z,99.90
2023-03-03T03:07:12.042Z,99.90
2023-03-03T03:09:40.134Z,99.90
2023-03-03T03:12:07.786Z,99.90
2023-03-03T03:14:36.092Z,99.90
2023-03-03T03:17:05.075Z,99.90
2023-03-03T03:19:32.340Z,99.90
2023-03-03T03:22:02.272Z,99.90
2023-03-03T03:24:30.907Z,99.90
2023-03-03T03:27:03.216Z,99.90
2023-03-03T03:29:30.540Z,99.90
2023-03-03T03:31:58.196Z,99.90
2023-03-03T03:34:33.716Z,99.90
2023-03-03T03:37:01.074Z,99.90
2023-03-03T03:39:37.051Z,99.90
2023-03-03T03:42:04.432Z,99.90
2023-03-03T03:45:07.377Z,99.90
2023-03-03T03:47:34.858Z,99.90
2023-03-03T03:50:02.154Z,99.90
2023-03-03T03:52:29.835Z,99.90
2023-03-03T03:54:57.193Z,99.90
2023-03-03T03:57:26.638Z,99.90
2023-03-03T03:59:54.480Z,99.90
2023-03-03T04:02:22.249Z,99.90
2023-03-03T04:04:49.677Z,99.90
2023-03-03T04:07:17.661Z,99.90
2023-03-03T04:09:45.244Z,99.90
2023-03-03T04:12:13.013Z,99.90
2023-03-03T04:14:40.827Z,99.90
2023-03-03T04:17:08.509Z,99.90
2023-03-03T04:19:36.104Z,99.90
2023-03-03T04:22:07.169Z,99.90
2023-03-03T04:24:34.739Z,99.90
2023-03-03T04:27:02.906Z,99.90
2023-03-03T04:29:30.479Z,99.90
2023-03-03T04:31:58.072Z,99.90
2023-03-03T04:34:25.614Z,99.90
2023-03-03T04:36:54.128Z,99.90
2023-03-03T04:39:21.667Z,99.90
2023-03-03T04:41:49.265Z,99.90
2023-03-03T04:44:16.669Z,99.90
2023-03-03T04:46:44.308Z,99.90
2023-03-03T04:49:12.692Z,99.90
2023-03-03T04:51:41.869Z,99.90
2023-03-03T04:54:09.704Z,99.90
2023-03-03T04:56:36.982Z,99.90
2023-03-03T04:59:05.123Z,99.90
2023-03-03T05:01:32.995Z,99.90
2023-03-03T05:04:01.094Z,99.90
2023-03-03T05:06:28.471Z,99.90
2023-03-03T05:08:55.718Z,99.90
2023-03-03T05:11:24.178Z,99.90
2023-03-03T05:13:51.520Z,99.90
2023-03-03T05:16:19.080Z,99.90
2023-03-03T05:18:48.053Z,99.90
2023-03-03T05:21:15.298Z,99.90
2023-03-03T05:23:43.977Z,99.90
2023-03-03T05:26:11.225Z,99.90
2023-03-03T05:28:38.604Z,99.90
2023-03-03T05:31:06.028Z,99.90
2023-03-03T05:33:34.417Z,99.90
2023-03-03T05:36:01.789Z,99.90
2023-03-03T05:38:29.106Z,99.90
2023-03-03T05:40:56.408Z,99.90
2023-03-03T05:43:23.690Z,99.90
2023-03-03T05:45:58.605Z,99.90
2023-03-03T05:48:25.906Z,99.90
2023-03-03T05:50:53.226Z,99.90
2023-03-03T05:53:20.517Z,99.90
2023-03-03T05:55:47.813Z,99.90
2023-03-03T05:58:15.041Z,99.90
2023-03-03T06:00:43.867Z,99.90
2023-03-03T06:03:11.241Z,99.90
2023-03-03T06:05:38.712Z,99.90
2023-03-03T06:08:06.048Z,99.90
2023-03-03T06:10:33.398Z,99.90
2023-03-03T06:13:04.714Z,99.90
2023-03-03T06:15:32.026Z,99.90
2023-03-03T06:17:59.740Z,99.90
2023-03-03T06:20:27.034Z,99.90
2023-03-03T06:22:54.550Z,99.90
2023-03-03T06:25:21.850Z,99.90
2023-03-03T06:27:49.087Z,99.90
2023-03-03T06:30:16.854Z,99.90
2023-03-03T06:32:44.385Z,99.90
2023-03-03T06:35:12.786Z,99.90
2023-03-03T06:37:40.486Z,99.90
2023-03-03T06:40:08.372Z,99.90
2023-03-03T06:42:37.210Z,99.90
2023-03-03T06:45:05.089Z,99.90
2023-03-03T06:47:34.068Z,99.90
2023-03-03T06:50:01.515Z,99.90
2023-03-03T06:52:28.951Z,99.90
2023-03-03T06:54:59.214Z,99.90
2023-03-03T06:57:32.324Z,99.90
2023-03-03T07:00:12.046Z,99.90
2023-03-03T07:02:39.326Z,99.90
2023-03-03T07:05:14.998Z,99.90
2023-03-03T07:07:42.495Z,99.90
2023-03-03T07:10:28.869Z,99.90
2023-03-03T07:13:07.092Z,99.90
2023-03-03T07:15:37.345Z,99.90
2023-03-03T07:18:16.220Z,99.90
2023-03-03T07:20:44.131Z,99.90
2023-03-03T07:23:29.696Z,99.90
2023-03-03T07:25:56.937Z,99.90
2023-03-03T07:28:30.850Z,99.90
2023-03-03T07:30:58.526Z,99.90
2023-03-03T07:33:42.822Z,99.90
2023-03-03T07:36:35.736Z,99.90
2023-03-03T07:39:16.765Z,99.90
2023-03-03T07:41:44.052Z,99.90
2023-03-03T07:44:27.036Z,99.90
2023-03-03T07:46:54.310Z,99.90
2023-03-03T07:49:29.874Z,99.90
2023-03-03T07:51:58.309Z,99.90
2023-03-03T07:54:29.874Z,99.90
2023-03-03T07:57:15.030Z,99.90
2023-03-03T07:59:55.100Z,99.90
2023-03-03T08:02:45.862Z,99.90
2023-03-03T08:05:42.434Z,99.90
2023-03-03T08:08:09.832Z,99.90
2023-03-03T08:10:49.795Z,99.90
2023-03-03T08:13:24.130Z,99.90
2023-03-03T08:15:56.101Z,99.90
2023-03-03T08:18:28.283Z,99.90
2023-03-03T08:21:01.175Z,99.90
2023-03-03T08:23:28.568Z,99.90
2023-03-03T08:25:55.967Z,99.90
2023-03-03T08:28:23.590Z,99.90
2023-03-03T08:30:54.401Z,99.90
2023-03-03T08:33:27.525Z,99.90
2023-03-03T08:35:54.993Z,99.90
2023-03-03T08:38:23.238Z,99.90
2023-03-03T08:40:51.094Z,99.90
2023-03-03T08:43:21.646Z,99.90
2023-03-03T08:45:50.646Z,99.90
2023-03-03T08:48:18.660Z,99.90
2023-03-03T08:50:46.981Z,99.90
2023-03-03T08:53:14.824Z,99.90
2023-03-03T08:55:43.016Z,99.90
2023-03-03T08:58:10.639Z,99.90
2023-03-03T09:00:38.587Z,99.90
2023-03-03T09:03:07.688Z,99.90
2023-03-03T09:05:37.393Z,99.90
2023-03-03T09:08:05.840Z,99.90
2023-03-03T09:10:34.718Z,99.90
2023-03-03T09:13:17.605Z,99.90
2023-03-03T09:15:45.724Z,99.90
2023-03-03T09:18:35.607Z,98.90
2023-03-03T09:21:03.146Z,97.40
2023-03-03T09:23:33.905Z,97.70
2023-03-03T09:26:28.384Z,95.20
2023-03-03T09:29:15.672Z,92.30
2023-03-03T09:31:49.405Z,92.20
2023-03-03T09:34:25.157Z,92.70
2023-03-03T09:36:55.311Z,90.30
2023-03-03T09:39:22.604Z,90.60
2023-03-03T09:42:19.391Z,90.30
2023-03-03T09:45:18.130Z,83.30
2023-03-03T09:48:07.001Z,81.90
2023-03-03T09:50:53.591Z,81.10
2023-03-03T09:53:47.979Z,77.40
2023-03-03T09:56:56.928Z,74.10
2023-03-03T09:59:49.978Z,69.10
2023-03-03T10:02:39.202Z,73.40
2023-03-03T10:05:39.177Z,67.40
2023-03-03T10:08:44.102Z,63.80
2023-03-03T10:11:35.975Z,63.40
2023-03-03T10:14:03.413Z,58.60
2023-03-03T10:16:34.038Z,61.00
2023-03-03T10:19:27.282Z,64.60
2023-03-03T10:22:24.570Z,60.50
2023-03-03T10:25:22.802Z,59.40
2023-03-03T10:27:53.245Z,63.30
2023-03-03T10:30:58.025Z,66.20
2023-03-03T10:33:38.212Z,67.80
2023-03-03T10:36:15.458Z,70.80
2023-03-03T10:39:08.792Z,72.70
2023-03-03T10:41:45.229Z,74.60
2023-03-03T10:44:21.856Z,74.20
2023-03-03T10:47:15.816Z,74.50
2023-03-03T10:50:11.132Z,75.10
2023-03-03T10:53:02.518Z,76.90
2023-03-03T10:56:11.274Z,75.30
2023-03-03T10:59:08.012Z,76.90
2023-03-03T11:01:45.561Z,77.00
2023-03-03T11:04:32.604Z,77.30
2023-03-03T11:07:15.429Z,76.30
2023-03-03T11:10:21.433Z,77.60
2023-03-03T11:12:58.605Z,77.60
2023-03-03T11:15:56.548Z,77.30
2023-03-03T11:18:41.799Z,79.00
2023-03-03T11:21:09.249Z,79.50
2023-03-03T11:24:33.588Z,79.10
2023-03-03T11:27:28.609Z,79.20
2023-03-03T11:30:02.988Z,80.40
2023-03-03T11:32:54.131Z,80.50
2023-03-03T11:35:31.388Z,79.90
2023-03-03T11:38:26.113Z,81.50
2023-03-03T11:41:07.089Z,82.90
2023-03-03T11:44:18.915Z,82.70
2023-03-03T11:46:54.323Z,83.00
2023-03-03T11:49:22.812Z,83.40
2023-03-03T11:52:02.227Z,83.40
2023-03-03T11:54:36.114Z,83.60
2023-03-03T11:57:30.034Z,84.70
2023-03-03T12:00:09.637Z,85.10
2023-03-03T12:03:04.103Z,85.60
2023-03-03T12:05:34.552Z,86.20
2023-03-03T12:08:36.444Z,85.50
2023-03-03T12:11:15.792Z,87.00
2023-03-03T12:14:07.997Z,87.80
2023-03-03T12:17:01.502Z,87.00
2023-03-03T12:19:55.218Z,87.20
2023-03-03T12:22:35.826Z,86.20
2023-03-03T12:25:27.569Z,85.80
2023-03-03T12:28:12.261Z,85.80
2023-03-03T12:31:00.937Z,86.00
2023-03-03T12:33:57.073Z,87.30
2023-03-03T12:36:51.981Z,89.00
2023-03-03T12:39:45.371Z,88.70
2023-03-03T12:42:40.094Z,88.90
2023-03-03T12:45:24.785Z,89.70
2023-03-03T12:48:01.317Z,90.10
2023-03-03T12:50:37.668Z,90.40
2023-03-03T12:53:28.596Z,90.50
2023-03-03T12:56:13.802Z,90.80
2023-03-03T12:59:01.405Z,90.80
2023-03-03T13:01:40.829Z,90.80
2023-03-03T13:04:35.655Z,90.80
2023-03-03T13:07:21.735Z,90.90
2023-03-03T13:10:18.583Z,91.00
2023-03-03T13:12:48.143Z,90.90
2023-03-03T13:16:06.771Z,91.20
2023-03-03T13:19:09.094Z,91.60
2023-03-03T13:21:51.716Z,91.50
2023-03-03T13:24:34.230Z,91.50
2023-03-03T13:27:11.094Z,91.50
2023-03-03T13:29:43.643Z,91.50
2023-03-03T13:32:43.542Z,91.70
2023-03-03T13:35:41.283Z,91.90
2023-03-03T13:38:14.399Z,92.20
2023-03-03T13:40:52.626Z,92.40
2023-03-03T13:43:24.670Z,92.40
2023-03-03T13:46:07.401Z,92.60
2023-03-03T13:48:43.986Z,92.50
2023-03-03T13:51:23.166Z,92.40
2023-03-03T13:54:12.083Z,92.50
2023-03-03T13:57:13.568Z,92.40
2023-03-03T13:59:47.229Z,92.20
2023-03-03T14:02:38.733Z,92.60
2023-03-03T14:05:08.836Z,92.60
2023-03-03T14:08:03.614Z,92.40
2023-03-03T14:11:09.685Z,92.50
2023-03-03T14:13:55.319Z,92.70
2023-03-03T14:16:51.267Z,92.60
2023-03-03T14:19:22.048Z,92.70
2023-03-03T14:21:52.650Z,92.70
2023-03-03T14:24:26.565Z,92.80
2023-03-03T14:26:56.973Z,92.70
2023-03-03T14:29:29.986Z,92.70
2023-03-03T14:32:00.206Z,93.00
2023-03-03T14:34:37.487Z,92.70
2023-03-03T14:37:23.333Z,93.10
2023-03-03T14:40:09.751Z,93.10
2023-03-03T14:43:08.219Z,93.60
2023-03-03T14:45:37.561Z,93.70
2023-03-03T14:48:32.778Z,93.50
2023-03-03T14:51:24.809Z,93.30
2023-03-03T14:53:52.304Z,93.40
2023-03-03T14:56:37.687Z,93.40
2023-03-03T14:59:17.317Z,93.80
2023-03-03T15:01:45.421Z,93.60
2023-03-03T15:04:34.371Z,93.90
2023-03-03T15:07:28.804Z,93.30
2023-03-03T15:09:57.606Z,93.40
2023-03-03T15:12:43.361Z,93.30
2023-03-03T15:15:11.650Z,93.30
2023-03-03T15:18:02.830Z,93.10
2023-03-03T15:20:33.035Z,93.00
2023-03-03T15:23:18.723Z,93.00
2023-03-03T15:26:23.376Z,92.80
2023-03-03T15:28:53.966Z,93.00
2023-03-03T15:31:42.430Z,93.20
2023-03-03T15:34:23.250Z,93.30
2023-03-03T15:37:01.614Z,93.30
2023-03-03T15:39:38.154Z,93.10
2023-03-03T15:42:12.262Z,93.10
2023-03-03T15:44:53.357Z,93.20
2023-03-03T15:47:42.335Z,93.40
2023-03-03T15:50:19.221Z,93.30
2023-03-03T15:53:10.725Z,93.70
2023-03-03T15:55:56.734Z,93.20
2023-03-03T15:59:03.429Z,93.80
2023-03-03T16:01:41.432Z,95.10
2023-03-03T16:04:16.058Z,95.00
2023-03-03T16:07:08.041Z,95.10
2023-03-03T16:09:47.715Z,95.50
2023-03-03T16:12:34.529Z,95.80
2023-03-03T16:15:16.829Z,95.90
2023-03-03T16:17:50.058Z,95.90
2023-03-03T16:20:20.959Z,96.40
2023-03-03T16:23:13.693Z,96.40
2023-03-03T16:26:14.429Z,96.40
2023-03-03T16:29:07.073Z,96.50
2023-03-03T16:31:40.383Z,96.80
2023-03-03T16:34:14.487Z,97.10
2023-03-03T16:37:10.215Z,97.10
2023-03-03T16:39:49.730Z,97.30
2023-03-03T16:42:29.322Z,97.50
2023-03-03T16:45:15.676Z,97.40
2023-03-03T16:47:58.701Z,97.30
2023-03-03T16:50:46.523Z,97.30
2023-03-03T16:53:31.797Z,97.60
2023-03-03T16:56:16.381Z,97.50
2023-03-03T16:59:04.842Z,97.50
2023-03-03T17:01:42.195Z,97.60
2023-03-03T17:04:34.252Z,98.10
2023-03-03T17:07:33.249Z,98.10
2023-03-03T17:10:30.625Z,98.30
2023-03-03T17:13:23.950Z,98.30
2023-03-03T17:16:26.016Z,98.60
2023-03-03T17:19:12.240Z,98.90
2023-03-03T17:22:12.991Z,99.30
2023-03-03T17:25:01.240Z,99.60
2023-03-03T17:28:07.114Z,99.60
2023-03-03T17:30:34.700Z,99.40
2023-03-03T17:33:14.375Z,99.40
2023-03-03T17:35:51.320Z,99.60
2023-03-03T17:38:42.142Z,99.90
2023-03-03T17:41:22.377Z,99.90
2023-03-03T17:44:12.752Z,99.90
2023-03-03T17:46:54.254Z,99.90
2023-03-03T17:49:41.634Z,99.90
2023-03-03T17:52:48.895Z,99.90
2023-03-03T17:55:31.679Z,99.90
2023-03-03T17:58:41.919Z,99.90
2023-03-03T18:01:27.615Z,99.90
2023-03-03T18:04:18.279Z,99.90
2023-03-03T18:07:19.212Z,99.90
2023-03-03T18:10:14.947Z,99.90
2023-03-03T18:13:07.826Z,99.90
2023-03-03T18:15:56.004Z,99.90
2023-03-03T18:18:52.939Z,99.90
2023-03-03T18:21:35.512Z,99.90
2023-03-03T18:24:30.398Z,99.90
2023-03-03T18:27:25.985Z,99.90
2023-03-03T18:30:10.149Z,99.90
2023-03-03T18:32:58.098Z,99.90
2023-03-03T18:35:35.249Z,99.90
2023-03-03T18:38:26.396Z,99.90
2023-03-03T18:41:18.882Z,99.90
2023-03-03T18:43:48.797Z,99.90
2023-03-03T18:46:23.263Z,99.90
2023-03-03T18:48:56.615Z,99.90
2023-03-03T18:51:40.204Z,99.90
2023-03-03T18:54:28.319Z,99.90
2023-03-03T18:57:02.975Z,99.90
2023-03-03T18:59:37.460Z,99.90
2023-03-03T19:02:30.535Z,99.90
2023-03-03T19:05:18.991Z,99.90
2023-03-03T19:08:24.014Z,99.90
2023-03-03T19:11:20.268Z,99.90
2023-03-03T19:13:49.852Z,99.90
2023-03-03T19:16:29.054Z,99.90
2023-03-03T19:18:57.245Z,99.90
2023-03-03T19:21:37.782Z,99.90
2023-03-03T19:24:17.826Z,99.90
2023-03-03T19:27:07.979Z,99.90
2023-03-03T19:29:59.174Z,99.90
2023-03-03T19:32:36.373Z,99.90
2023-03-03T19:35:23.552Z,99.90
2023-03-03T19:38:10.354Z,99.90
2023-03-03T19:40:50.312Z,99.90
2023-03-03T19:43:27.608Z,99.90
2023-03-03T19:46:32.633Z,99.90
2023-03-03T19:49:29.694Z,99.90
2023-03-03T19:51:58.138Z,99.90
2023-03-03T19:54:59.563Z,99.90
2023-03-03T19:57:57.163Z,99.90
2023-03-03T20:01:09.559Z,99.90
2023-03-03T20:04:14.172Z,99.90
2023-03-03T20:07:21.645Z,99.90
2023-03-03T20:10:25.094Z,99.90
2023-03-03T20:13:00.635Z,99.90
2023-03-03T20:16:11.845Z,99.90
2023-03-03T20:18:49.501Z,99.90
2023-03-03T20:21:40.857Z,99.90
2023-03-03T20:24:32.768Z,99.90
2023-03-03T20:27:46.648Z,99.90
2023-03-03T20:30:15.290Z,99.90
2023-03-03T20:32:52.819Z,99.90
2023-03-03T20:35:28.809Z,99.90
2023-03-03T20:38:18.807Z,99.90
2023-03-03T20:41:16.663Z,99.90
2023-03-03T20:44:06.915Z,99.90
2023-03-03T20:46:57.850Z,99.90
2023-03-03T20:49:49.404Z,99.90
2023-03-03T20:52:38.704Z,99.90
2023-03-03T20:55:28.464Z,99.90
2023-03-03T20:58:18.409Z,99.90
2023-03-03T21:01:11.722Z,99.90
2023-03-03T21:03:43.776Z,99.90
2023-03-03T21:06:20.456Z,99.90
2023-03-03T21:08:57.773Z,99.90
2023-03-03T21:11:43.414Z,99.90
2023-03-03T21:14:21.153Z,99.90
2023-03-03T21:16:51.016Z,99.90
2023-03-03T21:19:30.936Z,99.90
2023-03-03T21:22:02.168Z,99.90
2023-03-03T21:24:49.041Z,99.90
2023-03-03T21:27:31.774Z,99.90
2023-03-03T21:30:08.478Z,99.90
2023-03-03T21:32:42.402Z,99.90
2023-03-03T21:35:19.263Z,99.90
2023-03-03T21:37:53.798Z,99.90
2023-03-03T21:40:29.629Z,99.90
2023-03-03T21:43:00.662Z,99.90
2023-03-03T21:45:30.238Z,99.90
2023-03-03T21:48:00.693Z,99.90
2023-03-03T21:50:32.853Z,99.90
2023-03-03T21:53:00.833Z,99.90
2023-03-03T21:55:28.191Z,99.90
2023-03-03T21:57:55.747Z,99.90
2023-03-03T22:00:23.333Z,99.90
2023-03-03T22:02:50.713Z,99.90
2023-03-03T22:05:18.054Z,99.90
2023-03-03T22:07:45.641Z,99.90
2023-03-03T22:10:13.173Z,99.90
2023-03-03T22:12:40.556Z,99.90
2023-03-03T22:15:08.626Z,99.90
2023-03-03T22:17:35.975Z,99.90
2023-03-03T22:20:03.735Z,99.90
2023-03-03T22:22:31.221Z,99.90
2023-03-03T22:24:58.605Z,99.90
2023-03-03T22:27:26.004Z,99.90
2023-03-03T22:29:53.537Z,99.90
2023-03-03T22:32:20.900Z,99.90
2023-03-03T22:34:48.504Z,99.90
2023-03-03T22:37:15.811Z,99.90
2023-03-03T22:39:43.130Z,99.90
2023-03-03T22:42:11.352Z,99.90
2023-03-03T22:44:38.909Z,99.90
2023-03-03T22:47:06.355Z,99.90
2023-03-03T22:49:33.820Z,99.90
2023-03-03T22:52:02.836Z,99.90
2023-03-03T22:54:30.221Z,99.90
2023-03-03T22:56:57.681Z,99.90
2023-03-03T22:59:25.127Z,99.90
2023-03-03T23:01:52.447Z,99.90
2023-03-03T23:04:19.881Z,99.90
2023-03-03T23:06:47.364Z,99.90
2023-03-03T23:09:14.942Z,99.90
2023-03-03T23:11:42.304Z,99.90
2023-03-03T23:14:09.601Z,99.90
2023-03-03T23:16:36.837Z,99.90
2023-03-03T23:19:04.117Z,99.90
2023-03-03T23:21:31.746Z,99.90
2023-03-03T23:23:59.000Z,99.90
2023-03-03T23:26:26.427Z,99.90
2023-03-03T23:28:53.676Z,99.90
2023-03-03T23:31:21.197Z,99.90
2023-03-03T23:33:48.599Z,99.90
2023-03-03T23:36:15.841Z,99.90
2023-03-03T23:38:43.319Z,99.90
2023-03-03T23:41:10.576Z,99.90
2023-03-03T23:43:37.955Z,99.90
2023-03-03T23:46:05.391Z,99.90
2023-03-03T23:48:32.982Z,99.90
2023-03-03T23:51:01.831Z,99.90
2023-03-03T23:53:29.230Z,99.90
2023-03-03T23:55:56.473Z,99.90
2023-03-03T23:58:25.428Z,99.90
